Coraopolis, PA

5:02 AM EDT on March 27, 2015 (GMT -0400)
Moon Township | | Change Station
CLOSE
Current Station
Personal Weather Station
Location: Moon Township, PA
Elevation: 1073 ft
Nearby Weather Stations

Elev 1073 ft 40.52 °N, 80.20 °W | Updated 6 minutes ago

Overcast
Overcast
34.3 °F
Feels Like 34 °F
N
0.0
Wind Variable Wind from WNW

Today
High -- | Low -- °F
--% Chance of Precip.
Yesterday
High -- | Low -- °F
Precip. -- in
7:13 AM 7:39 PM
Waxing Crescent, 50% visible
Pressure 29.88 in
Visibility 6.0 miles
Clouds Overcast 4600 ft
Windchill 34 °F
Dew Point 34 °F
Humidity 99%
Rainfall 0.00 in
Snow Depth Not available.
UV 0 out of 12
Pollen 2.70 out of 12
Air Quality Not available.
Flu Activity Not available.
METAR KPIT 270851Z 27005KT 6SM BR OVC046 01/00 A2983 RMK AO2 SLP118 T00110000 58009

More Conditions Fewer Conditions

Pressure 29.88 in
Visibility 6.0 miles
Clouds Overcast 4600 ft
Windchill 34 °F
Dew Point 34 °F
Humidity 99%
Rainfall 0.00 in
Snow Depth Not available.
UV 0 out of 12
Pollen 2.70 out of 12
Air Quality Not available.
Flu Activity Not available.
METAR KPIT 270851Z 27005KT 6SM BR OVC046 01/00 A2983 RMK AO2 SLP118 T00110000 58009

More Conditions Fewer Conditions

10-Day Weather Forecast

Almanac

Astronomy

Mar. 27, 2015 Rise Set
Actual Time
Civil Twilight
Nautical Twilight
Astronomical Twilight
Moon
Length of Visible Light
Length of Day
Tomorrow will be .
, % of the Moon is Illuminated

Today's Extremes

State Highs State Lows

Community

WunderPhotos

Upload Photos

1,808,705 photos uploaded!

WunderBlogs® & News

Nearby

Air Quality

  Air Quality AQ Index Pollutant
Not available.

Snow Depth

Station Depth Elevation

Earthquake Activity

City Distance Mag. Time & Date
Minimum magnitude displayed is 2.5.

Coastal Water Temperatures

Place Temperature

Stations

Nearby Weather Stations

Station Location Temp. Windchill Dew Point Humidity Wind Precip. Elev Updated Type